createdAt,value
2019-06-20T00:00:48.364Z,85.84
2019-06-20T00:01:48.099Z,86.88
2019-06-20T00:02:48.083Z,86.08
2019-06-20T00:03:48.069Z,86.58
2019-06-20T00:04:48.061Z,86.83
2019-06-20T00:05:48.048Z,87.63
2019-06-20T00:06:48.098Z,87.43
2019-06-20T00:07:48.024Z,87.57
2019-06-20T00:08:48.020Z,88.28
2019-06-20T00:09:48.002Z,87.87
2019-06-20T00:10:47.991Z,87.67
2019-06-20T00:11:47.980Z,87.57
2019-06-20T00:12:59.819Z,88.07
2019-06-20T00:13:48.957Z,89.43
2019-06-20T00:14:47.946Z,89.73
2019-06-20T00:15:47.936Z,90.03
2019-06-20T00:16:47.925Z,90.48
2019-06-20T00:17:47.914Z,90.37
2019-06-20T00:18:48.087Z,90.28
2019-06-20T00:19:47.893Z,90.42
2019-06-20T00:20:47.885Z,90.98
2019-06-20T00:21:47.876Z,91.18
2019-06-20T00:22:47.858Z,90.98
2019-06-20T00:23:47.847Z,90.17
2019-06-20T00:24:48.046Z,92.09
2019-06-20T00:25:47.825Z,91.78
2019-06-20T00:26:47.814Z,91.18
2019-06-20T00:27:47.805Z,89.17
2019-06-20T00:28:47.792Z,90.28
2019-06-20T00:29:47.784Z,89.47
2019-06-20T00:30:47.975Z,88.92
2019-06-20T00:31:47.761Z,89.57
2019-06-20T00:32:47.748Z,89.17
2019-06-20T00:33:47.739Z,89.03
2019-06-20T00:34:47.726Z,89.57
2019-06-20T00:35:47.716Z,89.73
2019-06-20T00:36:51.179Z,88.76
2019-06-20T00:37:47.692Z,89.32
2019-06-20T00:38:47.682Z,88.82
2019-06-20T00:39:47.673Z,88.12
2019-06-20T00:40:47.660Z,88.42
2019-06-20T00:41:47.650Z,88.52
2019-06-20T00:42:47.682Z,88.06
2019-06-20T00:43:47.627Z,88.56
2019-06-20T00:44:47.620Z,89.37
2019-06-20T00:45:47.817Z,89.26
2019-06-20T00:46:47.603Z,89.47
2019-06-20T00:47:47.585Z,90.48
2019-06-20T00:48:47.573Z,90.07
2019-06-20T00:49:47.566Z,90.82
2019-06-20T00:50:47.556Z,91.22
2019-06-20T00:51:47.786Z,91.13
2019-06-20T00:52:47.528Z,90.72
2019-06-20T00:53:47.521Z,90.82
2019-06-20T00:54:47.507Z,90.72
2019-06-20T00:55:47.497Z,90.11
2019-06-20T00:56:47.484Z,90.22
2019-06-20T00:57:47.535Z,89.91
2019-06-20T00:58:47.485Z,90.52
2019-06-20T00:59:47.453Z,91.42
2019-06-20T01:00:47.453Z,91.47
2019-06-20T01:01:47.429Z,91.27
2019-06-20T01:02:47.425Z,91.41
2019-06-20T01:03:47.455Z,92.62
2019-06-20T01:04:47.396Z,90.97
2019-06-20T01:05:47.440Z,91.21
2019-06-20T01:06:47.377Z,91.82
2019-06-20T01:07:47.369Z,91.51
2019-06-20T01:08:47.355Z,90.97
2019-06-20T01:09:47.341Z,90.11
2019-06-20T01:10:47.329Z,90.01
2019-06-20T01:11:47.525Z,89.25
2019-06-20T01:12:47.313Z,89.91
2019-06-20T01:13:47.302Z,90.36
2019-06-20T01:14:47.285Z,90.26
2019-06-20T01:15:47.276Z,90.56
2019-06-20T01:16:47.266Z,91.01
2019-06-20T01:17:47.499Z,91.31
2019-06-20T01:18:47.268Z,91.01
2019-06-20T01:19:47.231Z,91.11
2019-06-20T01:20:47.238Z,91.51
2019-06-20T01:21:47.207Z,91.46
2019-06-20T01:22:47.195Z,91.91
2019-06-20T01:23:47.239Z,91.61
2019-06-20T01:24:47.173Z,91.31
2019-06-20T01:25:47.162Z,91.41
2019-06-20T01:26:47.153Z,90.61
2019-06-20T01:27:47.140Z,90.41
2019-06-20T01:28:47.130Z,90.24
2019-06-20T01:29:47.184Z,90.30
2019-06-20T01:30:47.106Z,90.24
2019-06-20T01:31:47.096Z,90.55
2019-06-20T01:32:47.083Z,91.05
2019-06-20T01:33:47.073Z,91.46
2019-06-20T01:34:47.063Z,91.15
2019-06-20T01:35:47.106Z,91.15
2019-06-20T01:36:47.038Z,91.55
2019-06-20T01:37:47.029Z,91.66
2019-06-20T01:38:47.015Z,91.46
2019-06-20T01:39:47.008Z,91.50
2019-06-20T01:40:46.993Z,91.90
2019-06-20T01:41:47.195Z,91.90
2019-06-20T01:42:46.977Z,92.00
2019-06-20T01:43:50.979Z,91.44
2019-06-20T01:44:46.947Z,91.80
2019-06-20T01:45:46.937Z,91.50
2019-06-20T01:46:46.924Z,91.90
2019-06-20T01:47:46.965Z,91.09
2019-06-20T01:48:46.931Z,90.39
2019-06-20T01:49:46.891Z,90.24
2019-06-20T01:50:46.880Z,90.04
2019-06-20T01:51:46.867Z,89.48
2019-06-20T01:52:46.855Z,90.24
2019-06-20T01:53:47.089Z,90.28
2019-06-20T01:54:46.832Z,90.04
2019-06-20T01:55:46.825Z,90.24
2019-06-20T01:56:46.830Z,90.14
2019-06-20T01:57:46.799Z,89.94
2019-06-20T01:58:46.789Z,89.23
2019-06-20T01:59:47.021Z,89.23
2019-06-20T02:00:46.765Z,89.34
2019-06-20T02:01:46.752Z,89.23
2019-06-20T02:02:46.743Z,89.74
2019-06-20T02:03:46.734Z,89.74
2019-06-20T02:04:46.719Z,89.54
2019-06-20T02:05:46.919Z,89.64
2019-06-20T02:06:46.698Z,89.84
2019-06-20T02:07:46.688Z,88.23
2019-06-20T02:08:46.758Z,88.53
2019-06-20T02:09:46.663Z,88.53
2019-06-20T02:10:46.653Z,88.63
2019-06-20T02:11:46.697Z,89.37
2019-06-20T02:12:46.637Z,89.74
2019-06-20T02:13:46.618Z,89.64
2019-06-20T02:14:46.620Z,90.49
2019-06-20T02:15:46.593Z,90.39
2019-06-20T02:16:46.583Z,91.50
2019-06-20T02:17:46.778Z,91.64
2019-06-20T02:18:46.561Z,91.74
2019-06-20T02:19:46.550Z,91.85
2019-06-20T02:20:46.610Z,91.94
2019-06-20T02:21:46.529Z,92.19
2019-06-20T02:22:46.520Z,92.69
2019-06-20T02:23:46.563Z,93.30
2019-06-20T02:24:46.495Z,93.30
2019-06-20T02:25:46.480Z,93.56
2019-06-20T02:26:46.474Z,92.69
2019-06-20T02:27:46.530Z,92.90
2019-06-20T02:28:46.445Z,93.05
2019-06-20T02:29:46.493Z,92.80
2019-06-20T02:30:46.443Z,92.80
2019-06-20T02:31:46.414Z,92.80
2019-06-20T02:32:46.401Z,92.80
2019-06-20T02:33:46.390Z,92.60
2019-06-20T02:34:46.379Z,93.26
2019-06-20T02:35:46.430Z,92.85
2019-06-20T02:36:46.356Z,93.26
2019-06-20T02:37:46.347Z,93.26
2019-06-20T02:38:46.333Z,92.96
2019-06-20T02:39:46.325Z,92.76
2019-06-20T02:40:46.314Z,92.76
2019-06-20T02:41:46.362Z,93.26
2019-06-20T02:42:46.292Z,92.05
2019-06-20T02:43:46.277Z,92.25
2019-06-20T02:44:46.274Z,92.25
2019-06-20T02:45:46.254Z,92.45
2019-06-20T02:46:46.243Z,92.85
2019-06-20T02:47:46.291Z,91.74
2019-06-20T02:48:46.222Z,91.90
2019-06-20T02:49:46.208Z,91.05
2019-06-20T02:50:46.201Z,90.65
2019-06-20T02:51:46.191Z,90.14
2019-06-20T02:52:46.177Z,90.30
2019-06-20T02:53:46.408Z,89.70
2019-06-20T02:54:46.150Z,89.29
2019-06-20T02:55:46.141Z,89.39
2019-06-20T02:56:46.128Z,88.48
2019-06-20T02:57:46.124Z,89.39
2019-06-20T02:58:46.104Z,89.79
2019-06-20T02:59:46.300Z,88.28
2019-06-20T03:00:46.087Z,87.68
2019-06-20T03:01:46.084Z,87.98
2019-06-20T03:02:46.058Z,88.45
2019-06-20T03:03:46.048Z,88.28
2019-06-20T03:04:46.036Z,88.08
2019-06-20T03:05:46.235Z,88.65
2019-06-20T03:06:46.014Z,88.59
2019-06-20T03:07:46.004Z,88.39
2019-06-20T03:08:45.991Z,88.48
2019-06-20T03:09:45.979Z,88.54
2019-06-20T03:10:45.967Z,87.94
2019-06-20T03:11:46.020Z,88.54
2019-06-20T03:12:45.946Z,89.95
2019-06-20T03:13:45.933Z,90.20
2019-06-20T03:14:46.036Z,92.52
2019-06-20T03:15:45.912Z,94.93
2019-06-20T03:16:45.903Z,97.50
2019-06-20T03:17:46.101Z,98.92
2019-06-20T03:18:45.881Z,99.42
2019-06-20T03:19:45.866Z,99.52
2019-06-20T03:20:45.856Z,99.99
2019-06-20T03:21:45.847Z,99.73
2019-06-20T03:22:45.831Z,99.83
2019-06-20T03:23:45.880Z,99.99
2019-06-20T03:24:45.810Z,99.58
2019-06-20T03:25:45.800Z,99.48
2019-06-20T03:26:45.798Z,98.87
2019-06-20T03:27:45.775Z,98.72
2019-06-20T03:28:45.767Z,98.42
2019-06-20T03:29:45.818Z,98.02
2019-06-20T03:30:45.750Z,98.62
2019-06-20T03:31:45.731Z,97.81
2019-06-20T03:32:45.718Z,97.91
2019-06-20T03:33:45.708Z,98.72
2019-06-20T03:34:45.728Z,99.22
2019-06-20T03:35:45.944Z,99.99
2019-06-20T03:36:45.691Z,99.99
2019-06-20T03:37:45.667Z,99.99
2019-06-20T03:38:45.651Z,99.99
2019-06-20T03:39:45.653Z,99.99
2019-06-20T03:40:45.633Z,99.99
2019-06-20T03:41:45.831Z,99.99
2019-06-20T03:42:45.607Z,99.99
2019-06-20T03:43:45.621Z,99.99
2019-06-20T03:45:00.985Z,99.99
2019-06-20T03:45:46.572Z,99.99
2019-06-20T03:46:45.592Z,99.99
2019-06-20T03:47:45.830Z,99.99
2019-06-20T03:48:45.544Z,99.99
2019-06-20T03:49:45.534Z,99.99
2019-06-20T03:50:45.542Z,99.99
2019-06-20T03:51:45.533Z,99.99
2019-06-20T03:52:45.497Z,99.99
2019-06-20T03:53:45.565Z,99.99
2019-06-20T03:54:45.477Z,99.99
2019-06-20T03:55:45.467Z,99.99
2019-06-20T03:56:45.449Z,99.99
2019-06-20T03:57:45.464Z,99.99
2019-06-20T03:58:45.450Z,99.99
2019-06-20T03:59:45.544Z,99.99
2019-06-20T04:00:45.453Z,99.99
2019-06-20T04:01:48.919Z,99.99
2019-06-20T04:02:46.161Z,99.99
2019-06-20T04:03:45.371Z,99.99
2019-06-20T04:04:45.362Z,99.99
2019-06-20T04:05:45.691Z,99.99
2019-06-20T04:06:45.344Z,99.99
2019-06-20T04:07:45.388Z,99.99
2019-06-20T04:08:45.330Z,99.99
2019-06-20T04:09:45.303Z,99.99
2019-06-20T04:10:45.296Z,99.99
2019-06-20T04:11:45.294Z,99.99
2019-06-20T04:12:45.272Z,99.99
2019-06-20T04:13:45.326Z,99.99
2019-06-20T04:14:48.761Z,99.99
2019-06-20T04:15:45.260Z,99.99
2019-06-20T04:16:45.245Z,99.99
2019-06-20T04:17:45.220Z,99.99
2019-06-20T04:18:45.211Z,99.99
2019-06-20T04:19:45.428Z,99.99
2019-06-20T04:20:45.226Z,99.99
2019-06-20T04:21:45.209Z,99.99
2019-06-20T04:22:45.156Z,99.99
2019-06-20T04:23:45.145Z,99.99
2019-06-20T04:24:45.141Z,99.99
2019-06-20T04:25:45.332Z,99.99
2019-06-20T04:26:45.111Z,99.99
2019-06-20T04:27:45.113Z,99.99
2019-06-20T04:28:45.095Z,99.99
2019-06-20T04:29:45.075Z,99.99
2019-06-20T04:30:45.070Z,99.99
2019-06-20T04:31:45.114Z,99.99
2019-06-20T04:32:45.050Z,99.99
2019-06-20T04:33:45.033Z,99.99
2019-06-20T04:34:45.022Z,99.99
2019-06-20T04:35:45.012Z,99.99
2019-06-20T04:36:47.969Z,99.99
2019-06-20T04:37:45.056Z,99.99
2019-06-20T04:38:45.039Z,99.99
2019-06-20T04:39:44.963Z,99.99
2019-06-20T04:40:44.953Z,99.99
2019-06-20T04:41:44.937Z,99.99
2019-06-20T04:42:44.928Z,99.99
2019-06-20T04:43:44.973Z,99.99
2019-06-20T04:44:44.908Z,99.99
2019-06-20T04:45:44.896Z,99.99
2019-06-20T04:46:44.878Z,99.99
2019-06-20T04:47:44.887Z,99.99
2019-06-20T04:48:44.865Z,99.99
2019-06-20T04:49:44.913Z,99.99
2019-06-20T04:50:44.841Z,99.99
2019-06-20T04:51:44.833Z,99.99
2019-06-20T04:52:44.810Z,99.99
2019-06-20T04:53:44.842Z,99.99
2019-06-20T04:54:44.829Z,99.99
2019-06-20T04:55:44.845Z,99.99
2019-06-20T04:56:44.768Z,99.99
2019-06-20T04:57:44.761Z,99.99
2019-06-20T04:58:44.761Z,99.99
2019-06-20T04:59:44.733Z,99.99
2019-06-20T05:00:44.720Z,99.99
2019-06-20T05:01:44.776Z,99.99
2019-06-20T05:02:44.703Z,99.99
2019-06-20T05:03:44.701Z,99.99
2019-06-20T05:04:44.703Z,99.99
2019-06-20T05:05:44.669Z,99.99
2019-06-20T05:06:44.654Z,99.99
2019-06-20T05:07:44.856Z,99.99
2019-06-20T05:08:44.631Z,99.99
2019-06-20T05:09:44.621Z,99.99
2019-06-20T05:10:44.612Z,99.99
2019-06-20T05:11:44.602Z,99.99
2019-06-20T05:12:44.586Z,99.65
2019-06-20T05:13:44.643Z,98.59
2019-06-20T05:14:44.565Z,98.59
2019-06-20T05:15:52.466Z,98.34
2019-06-20T05:16:45.539Z,98.34
2019-06-20T05:17:44.544Z,98.34
2019-06-20T05:18:44.642Z,98.30
2019-06-20T05:19:44.574Z,98.39
2019-06-20T05:20:44.504Z,98.39
2019-06-20T05:21:44.487Z,97.79
2019-06-20T05:22:44.480Z,98.50
2019-06-20T05:23:44.471Z,97.39
2019-06-20T05:24:44.458Z,97.59
2019-06-20T05:25:44.510Z,97.19
2019-06-20T05:26:44.444Z,97.19
2019-06-20T05:27:44.418Z,97.39
2019-06-20T05:28:44.408Z,97.29
2019-06-20T05:29:44.399Z,97.34
2019-06-20T05:30:44.454Z,97.44
2019-06-20T05:31:44.642Z,98.15
2019-06-20T05:32:44.369Z,96.84
2019-06-20T05:33:44.357Z,97.44
2019-06-20T05:34:44.349Z,97.34
2019-06-20T05:35:44.338Z,97.55
2019-06-20T05:36:44.319Z,97.95
2019-06-20T05:37:44.532Z,97.80
2019-06-20T05:38:44.302Z,96.69
2019-06-20T05:39:44.285Z,96.39
2019-06-20T05:40:44.284Z,95.43
2019-06-20T05:41:44.263Z,94.43
2019-06-20T05:42:44.250Z,95.03
2019-06-20T05:43:44.322Z,94.53
2019-06-20T05:44:44.228Z,95.73
2019-06-20T05:45:48.395Z,95.33
2019-06-20T05:46:44.205Z,96.44
2019-06-20T05:47:44.194Z,95.43
2019-06-20T05:48:44.183Z,95.49
2019-06-20T05:49:44.396Z,93.98
2019-06-20T05:50:44.160Z,94.98
2019-06-20T05:51:44.148Z,94.68
2019-06-20T05:52:44.144Z,94.48
2019-06-20T05:53:44.125Z,93.98
2019-06-20T05:54:44.121Z,94.34
2019-06-20T05:55:44.178Z,95.34
2019-06-20T05:56:44.722Z,93.93
2019-06-20T05:57:44.081Z,95.24
2019-06-20T05:58:44.075Z,94.94
2019-06-20T05:59:44.056Z,94.79
2019-06-20T06:00:44.054Z,94.09
2019-06-20T06:01:44.112Z,93.59
2019-06-20T06:02:44.029Z,93.99
2019-06-20T06:03:44.015Z,93.39
2019-06-20T06:04:44.070Z,93.24
2019-06-20T06:05:43.987Z,93.15
2019-06-20T06:06:43.987Z,93.55
2019-06-20T06:07:44.091Z,92.34
2019-06-20T06:08:43.955Z,91.78
2019-06-20T06:09:45.567Z,93.54
2019-06-20T06:10:43.948Z,93.59
2019-06-20T06:11:43.921Z,94.29
2019-06-20T06:12:43.909Z,91.58
2019-06-20T06:13:44.117Z,91.94
2019-06-20T06:14:43.886Z,90.49
2019-06-20T06:15:43.878Z,89.95
2019-06-20T06:16:44.311Z,89.45
2019-06-20T06:17:43.864Z,88.10
2019-06-20T06:18:43.842Z,88.70
2019-06-20T06:19:43.922Z,87.54
2019-06-20T06:20:45.040Z,89.95
2019-06-20T06:21:43.810Z,88.14
2019-06-20T06:22:44.867Z,87.52
2019-06-20T06:23:43.821Z,85.35
2019-06-20T06:24:43.788Z,82.77
2019-06-20T06:25:44.016Z,80.18
2019-06-20T06:26:43.772Z,83.03
2019-06-20T06:27:43.748Z,78.60
2019-06-20T06:28:43.732Z,79.16
2019-06-20T06:29:43.746Z,76.47
2019-06-20T06:30:43.727Z,77.07
2019-06-20T06:31:43.780Z,77.77
2019-06-20T06:32:43.709Z,78.00
2019-06-20T06:33:43.676Z,79.40
2019-06-20T06:34:43.666Z,77.73
2019-06-20T06:35:43.654Z,77.69
2019-06-20T06:36:43.649Z,75.74
2019-06-20T06:37:43.881Z,80.10
2019-06-20T06:38:43.621Z,78.70
2019-06-20T06:39:43.633Z,79.00
2019-06-20T06:40:43.602Z,78.28
2019-06-20T06:41:43.622Z,79.52
2019-06-20T06:42:43.579Z,80.99
2019-06-20T06:43:43.646Z,81.89
2019-06-20T06:44:43.560Z,80.29
2019-06-20T06:45:43.546Z,81.05
2019-06-20T06:46:52.819Z,80.71
2019-06-20T06:47:44.526Z,79.11
2019-06-20T06:48:43.512Z,79.24
2019-06-20T06:49:43.588Z,76.07
2019-06-20T06:50:43.494Z,75.87
2019-06-20T06:51:43.543Z,74.90
2019-06-20T06:52:43.471Z,73.08
2019-06-20T06:53:43.461Z,73.38
2019-06-20T06:54:43.470Z,74.57
2019-06-20T06:55:43.505Z,72.94
2019-06-20T06:56:43.436Z,73.28
2019-06-20T06:57:43.417Z,73.24
2019-06-20T06:58:43.412Z,74.24
2019-06-20T06:59:43.397Z,73.11
2019-06-20T07:00:43.379Z,70.89
2019-06-20T07:01:43.444Z,68.27
2019-06-20T07:02:43.357Z,69.29
2019-06-20T07:03:43.345Z,69.16
2019-06-20T07:04:43.337Z,69.89
2019-06-20T07:05:43.336Z,67.57
2019-06-20T07:06:43.414Z,67.44
2019-06-20T07:07:43.361Z,66.05
2019-06-20T07:08:43.297Z,66.88
2019-06-20T07:09:43.509Z,67.27
2019-06-20T07:10:43.274Z,68.73
2019-06-20T07:11:43.268Z,68.70
2019-06-20T07:12:43.249Z,69.99
2019-06-20T07:13:43.242Z,70.36
2019-06-20T07:14:43.228Z,68.93
2019-06-20T07:15:43.465Z,67.60
2019-06-20T07:16:56.543Z,66.25
2019-06-20T07:17:44.191Z,64.34
2019-06-20T07:18:43.184Z,64.14
2019-06-20T07:19:43.174Z,63.54
2019-06-20T07:20:43.158Z,63.97
2019-06-20T07:21:43.404Z,65.66
2019-06-20T07:22:43.148Z,63.40
2019-06-20T07:23:43.128Z,66.48
2019-06-20T07:24:43.128Z,65.56
2019-06-20T07:25:43.106Z,65.53
2019-06-20T07:26:43.092Z,64.56
2019-06-20T07:27:43.433Z,64.27
2019-06-20T07:28:43.072Z,61.76
2019-06-20T07:29:43.066Z,62.82
2019-06-20T07:30:43.059Z,62.62
2019-06-20T07:31:43.042Z,63.68
2019-06-20T07:32:43.033Z,61.96
2019-06-20T07:33:43.228Z,60.97
2019-06-20T07:34:43.007Z,61.96
2019-06-20T07:35:42.995Z,63.05
2019-06-20T07:36:42.984Z,62.23
2019-06-20T07:37:42.980Z,61.60
2019-06-20T07:38:42.967Z,60.71
2019-06-20T07:39:43.020Z,60.71
2019-06-20T07:40:42.941Z,60.83
2019-06-20T07:41:42.931Z,61.33
2019-06-20T07:42:42.920Z,62.45
2019-06-20T07:43:42.910Z,62.02
2019-06-20T07:44:42.897Z,62.31
2019-06-20T07:45:43.160Z,61.53
2019-06-20T07:46:42.872Z,61.50
2019-06-20T07:47:42.984Z,60.61
2019-06-20T07:48:42.852Z,62.05
2019-06-20T07:49:42.851Z,62.02
2019-06-20T07:50:42.833Z,60.25
2019-06-20T07:51:43.036Z,60.41
2019-06-20T07:52:42.817Z,60.94
2019-06-20T07:53:42.800Z,61.36
2019-06-20T07:54:42.783Z,61.73
2019-06-20T07:55:42.774Z,61.21
2019-06-20T07:56:42.764Z,60.61
2019-06-20T07:57:42.895Z,59.19
2019-06-20T07:58:42.787Z,59.53
2019-06-20T07:59:42.732Z,58.09
2019-06-20T08:00:42.736Z,58.33
2019-06-20T08:01:42.716Z,58.36
2019-06-20T08:02:42.696Z,56.56
2019-06-20T08:03:45.281Z,58.34
2019-06-20T08:04:42.676Z,59.25
2019-06-20T08:05:42.664Z,58.77
2019-06-20T08:06:42.655Z,58.74
2019-06-20T08:07:42.666Z,58.64
2019-06-20T08:08:42.652Z,57.73
2019-06-20T08:09:45.119Z,58.32
2019-06-20T08:10:42.610Z,58.90
2019-06-20T08:11:42.597Z,60.83
2019-06-20T08:12:42.707Z,61.66
2019-06-20T08:13:42.597Z,61.66
2019-06-20T08:14:42.565Z,62.02
2019-06-20T08:15:42.847Z,62.64
2019-06-20T08:16:42.542Z,62.94
2019-06-20T08:17:42.578Z,63.21
2019-06-20T08:18:42.523Z,63.28
2019-06-20T08:19:42.509Z,64.33
2019-06-20T08:20:42.497Z,63.54
2019-06-20T08:21:44.215Z,64.09
2019-06-20T08:22:42.474Z,64.16
2019-06-20T08:23:42.464Z,64.29
2019-06-20T08:24:42.461Z,64.26
2019-06-20T08:25:42.441Z,64.76
2019-06-20T08:26:42.434Z,65.28
2019-06-20T08:27:42.608Z,65.58
2019-06-20T08:28:42.491Z,65.35
2019-06-20T08:29:42.398Z,63.57
2019-06-20T08:30:42.391Z,64.49
2019-06-20T08:31:42.386Z,64.82
2019-06-20T08:32:42.366Z,64.89
2019-06-20T08:33:42.420Z,65.61
2019-06-20T08:34:42.347Z,65.78
2019-06-20T08:35:42.332Z,64.23
2019-06-20T08:36:42.322Z,63.67
2019-06-20T08:37:42.311Z,61.53
2019-06-20T08:38:42.303Z,61.23
2019-06-20T08:39:43.551Z,60.24
2019-06-20T08:40:42.279Z,61.13
2019-06-20T08:41:42.267Z,60.54
2019-06-20T08:42:42.267Z,59.69
2019-06-20T08:43:42.249Z,59.56
2019-06-20T08:44:42.236Z,58.87
2019-06-20T08:45:42.285Z,58.47
2019-06-20T08:46:42.215Z,58.70
2019-06-20T08:47:42.298Z,59.22
2019-06-20T08:48:42.189Z,59.12
2019-06-20T08:49:42.181Z,59.03
2019-06-20T08:50:42.248Z,60.34
2019-06-20T08:51:42.218Z,60.44
2019-06-20T08:52:42.180Z,60.05
2019-06-20T08:53:42.133Z,60.02
2019-06-20T08:54:42.122Z,58.70
2019-06-20T08:55:42.117Z,58.45
2019-06-20T08:56:42.115Z,56.71
2019-06-20T08:57:42.210Z,56.29
2019-06-20T08:58:42.083Z,57.40
2019-06-20T08:59:42.069Z,57.56
2019-06-20T09:00:42.091Z,57.95
2019-06-20T09:01:42.046Z,58.43
2019-06-20T09:02:42.035Z,59.65
2019-06-20T09:03:42.238Z,60.21
2019-06-20T09:04:42.023Z,59.04
2019-06-20T09:05:42.010Z,56.67
2019-06-20T09:06:41.992Z,55.43
2019-06-20T09:07:42.033Z,55.49
2019-06-20T09:08:42.029Z,55.62
2019-06-20T09:09:42.026Z,57.56
2019-06-20T09:10:41.951Z,57.58
2019-06-20T09:11:41.983Z,58.70
2019-06-20T09:12:41.928Z,59.59
2019-06-20T09:13:41.919Z,59.72
2019-06-20T09:14:41.909Z,59.78
2019-06-20T09:15:41.971Z,62.34
2019-06-20T09:16:41.883Z,63.46
2019-06-20T09:17:41.877Z,64.46
2019-06-20T09:18:41.894Z,63.49
2019-06-20T09:19:41.851Z,63.76
2019-06-20T09:20:41.841Z,63.83
2019-06-20T09:21:42.039Z,61.45
2019-06-20T09:22:41.819Z,62.15
2019-06-20T09:23:41.807Z,63.93
2019-06-20T09:24:41.796Z,63.64
2019-06-20T09:25:41.807Z,63.83
2019-06-20T09:26:41.775Z,63.54
2019-06-20T09:27:41.831Z,63.80
2019-06-20T09:28:41.752Z,63.31
2019-06-20T09:29:42.203Z,62.18
2019-06-20T09:30:41.734Z,61.16
2019-06-20T09:31:41.738Z,59.65
2019-06-20T09:32:41.712Z,60.34
2019-06-20T09:33:41.779Z,59.84
2019-06-20T09:34:41.693Z,59.35
2019-06-20T09:35:41.678Z,59.25
2019-06-20T09:36:41.665Z,58.73
2019-06-20T09:37:41.660Z,58.20
2019-06-20T09:38:41.644Z,56.40
2019-06-20T09:39:41.884Z,57.41
2019-06-20T09:40:41.621Z,58.40
2019-06-20T09:41:41.614Z,57.58
2019-06-20T09:42:41.600Z,57.31
2019-06-20T09:43:41.588Z,56.82
2019-06-20T09:44:41.578Z,57.12
2019-06-20T09:45:41.631Z,57.53
2019-06-20T09:46:41.556Z,55.40
2019-06-20T09:47:41.548Z,55.10
2019-06-20T09:48:41.563Z,54.58
2019-06-20T09:49:41.524Z,53.81
2019-06-20T09:50:41.514Z,51.15
2019-06-20T09:51:41.720Z,49.26
2019-06-20T09:52:41.493Z,49.48
2019-06-20T09:53:41.481Z,49.43
2019-06-20T09:54:41.470Z,50.78
2019-06-20T09:55:41.465Z,50.07
2019-06-20T09:56:41.453Z,49.41
2019-06-20T09:57:41.504Z,48.40
2019-06-20T09:58:41.429Z,48.15
2019-06-20T09:59:55.901Z,49.01
2019-06-20T10:00:42.412Z,47.56
2019-06-20T10:01:41.398Z,48.99
2019-06-20T10:02:41.388Z,50.21
2019-06-20T10:03:41.441Z,50.81
2019-06-20T10:04:41.374Z,50.71
2019-06-20T10:05:41.356Z,51.54
2019-06-20T10:06:41.345Z,50.78
2019-06-20T10:07:41.345Z,51.59
2019-06-20T10:08:41.331Z,50.19
2019-06-20T10:09:41.377Z,50.21
2019-06-20T10:10:41.311Z,50.09
2019-06-20T10:11:41.291Z,49.06
2019-06-20T10:12:41.280Z,47.83
2019-06-20T10:13:41.271Z,48.55
2019-06-20T10:14:41.262Z,46.78
2019-06-20T10:15:41.313Z,47.05
2019-06-20T10:16:45.700Z,48.65
2019-06-20T10:17:42.230Z,48.57
2019-06-20T10:18:41.217Z,48.20
2019-06-20T10:19:41.211Z,50.73
2019-06-20T10:20:41.195Z,49.55
2019-06-20T10:21:41.263Z,49.77
2019-06-20T10:22:41.173Z,50.56
2019-06-20T10:23:41.177Z,52.19
2019-06-20T10:24:41.154Z,51.57
2019-06-20T10:25:41.140Z,50.42
2019-06-20T10:26:41.130Z,49.18
2019-06-20T10:27:41.375Z,48.25
2019-06-20T10:28:41.110Z,48.59
2019-06-20T10:29:41.100Z,47.46
2019-06-20T10:30:41.087Z,47.85
2019-06-20T10:31:41.077Z,48.52
2019-06-20T10:32:41.067Z,48.42
2019-06-20T10:33:41.277Z,47.29
2019-06-20T10:34:41.050Z,46.88
2019-06-20T10:35:41.034Z,46.78
2019-06-20T10:36:41.033Z,46.73
2019-06-20T10:37:41.026Z,44.82
2019-06-20T10:38:41.007Z,45.12
2019-06-20T10:39:41.056Z,45.12
2019-06-20T10:40:40.984Z,44.70
2019-06-20T10:41:41.027Z,44.43
2019-06-20T10:42:40.966Z,44.77
2019-06-20T10:43:40.952Z,45.87
2019-06-20T10:44:40.940Z,46.22
2019-06-20T10:45:41.000Z,46.56
2019-06-20T10:46:40.933Z,46.61
2019-06-20T10:47:43.581Z,44.62
2019-06-20T10:48:42.522Z,44.65
2019-06-20T10:49:42.838Z,44.55
2019-06-20T10:50:40.940Z,46.88
2019-06-20T10:51:42.331Z,47.78
2019-06-20T10:52:42.032Z,47.07
2019-06-20T10:53:40.850Z,45.63
2019-06-20T10:54:42.224Z,44.02
2019-06-20T10:55:42.089Z,44.08
2019-06-20T10:56:42.227Z,45.14
2019-06-20T10:57:41.858Z,46.48
2019-06-20T10:58:42.002Z,46.41
2019-06-20T10:59:41.546Z,45.97
2019-06-20T11:00:41.750Z,44.74
2019-06-20T11:01:41.599Z,44.98
2019-06-20T11:02:42.286Z,46.31
2019-06-20T11:03:41.907Z,46.26
2019-06-20T11:04:42.299Z,44.73
2019-06-20T11:05:41.998Z,46.18
2019-06-20T11:06:41.645Z,48.37
2019-06-20T11:07:42.087Z,47.95
2019-06-20T11:08:41.804Z,48.05
2019-06-20T11:09:41.266Z,49.22
2019-06-20T11:10:42.240Z,51.18
2019-06-20T11:11:41.759Z,50.88
2019-06-20T11:12:47.839Z,50.46
2019-06-20T11:13:42.201Z,51.75
2019-06-20T11:14:42.062Z,51.10
2019-06-20T11:15:42.131Z,48.98
2019-06-20T11:16:42.128Z,48.44
2019-06-20T11:17:41.900Z,47.92
2019-06-20T11:18:41.351Z,46.94
2019-06-20T11:19:41.523Z,45.67
2019-06-20T11:20:41.010Z,44.85
2019-06-20T11:21:41.605Z,44.85
2019-06-20T11:22:41.596Z,44.88
2019-06-20T11:23:40.890Z,44.64
2019-06-20T11:24:41.139Z,44.32
2019-06-20T11:25:41.884Z,42.90
2019-06-20T11:26:41.084Z,42.72
2019-06-20T11:27:40.582Z,44.40
2019-06-20T11:28:41.416Z,43.95
2019-06-20T11:29:41.589Z,44.73
2019-06-20T11:30:52.617Z,43.87
2019-06-20T11:31:44.688Z,44.58
2019-06-20T11:32:41.011Z,44.70
2019-06-20T11:33:42.023Z,44.80
2019-06-20T11:34:40.421Z,46.69
2019-06-20T11:35:41.805Z,46.79
2019-06-20T11:36:40.399Z,47.78
2019-06-20T11:37:40.389Z,46.67
2019-06-20T11:38:40.697Z,46.47
2019-06-20T11:39:41.101Z,45.17
2019-06-20T11:40:41.542Z,45.37
2019-06-20T11:41:41.596Z,45.29
2019-06-20T11:42:40.340Z,45.68
2019-06-20T11:43:40.327Z,46.37
2019-06-20T11:44:40.878Z,45.27
2019-06-20T11:45:40.930Z,45.15
2019-06-20T11:46:40.707Z,44.40
2019-06-20T11:47:40.537Z,43.14
2019-06-20T11:48:40.599Z,44.64
2019-06-20T11:49:40.447Z,44.77
2019-06-20T11:50:40.252Z,43.45
2019-06-20T11:51:41.816Z,42.08
2019-06-20T11:52:43.834Z,40.78
2019-06-20T11:53:42.612Z,41.00
2019-06-20T11:54:40.351Z,43.26
2019-06-20T11:55:40.201Z,42.27
2019-06-20T11:56:40.190Z,41.41
2019-06-20T11:57:40.405Z,43.22
2019-06-20T11:58:40.167Z,42.39
2019-06-20T11:59:40.161Z,41.17
2019-06-20T12:00:40.155Z,41.42
2019-06-20T12:01:41.279Z,41.02
2019-06-20T12:02:42.019Z,41.07
2019-06-20T12:03:40.747Z,40.53
2019-06-20T12:04:41.526Z,42.88
2019-06-20T12:05:41.558Z,42.72
2019-06-20T12:06:41.414Z,42.66
2019-06-20T12:07:41.526Z,42.33
2019-06-20T12:08:40.727Z,42.99
2019-06-20T12:09:40.933Z,41.56
2019-06-20T12:10:40.906Z,40.78
2019-06-20T12:11:40.718Z,41.00
2019-06-20T12:12:40.987Z,41.52
2019-06-20T12:13:40.429Z,42.25
2019-06-20T12:14:41.400Z,42.13
2019-06-20T12:15:41.651Z,43.26
2019-06-20T12:16:40.886Z,43.18
2019-06-20T12:17:41.754Z,44.98
2019-06-20T12:18:41.497Z,46.23
2019-06-20T12:19:40.861Z,47.26
2019-06-20T12:20:41.171Z,48.64
2019-06-20T12:21:40.995Z,47.91
2019-06-20T12:22:41.292Z,46.90
2019-06-20T12:23:40.673Z,46.11
2019-06-20T12:24:41.258Z,45.30
2019-06-20T12:25:40.932Z,44.49
2019-06-20T12:26:40.801Z,44.40
2019-06-20T12:27:40.781Z,44.43
2019-06-20T12:28:40.732Z,44.27
2019-06-20T12:29:40.671Z,43.90
2019-06-20T12:30:41.498Z,43.19
2019-06-20T12:31:41.096Z,43.08
2019-06-20T12:32:40.641Z,42.94
2019-06-20T12:33:40.968Z,42.21
2019-06-20T12:34:40.514Z,41.09
2019-06-20T12:35:41.320Z,40.48
2019-06-20T12:36:40.953Z,40.37
2019-06-20T12:37:40.569Z,40.55
2019-06-20T12:38:40.951Z,41.56
2019-06-20T12:39:40.388Z,42.11
2019-06-20T12:40:41.220Z,43.53
2019-06-20T12:41:41.157Z,44.34
2019-06-20T12:42:41.459Z,44.42
2019-06-20T12:43:40.327Z,44.49
2019-06-20T12:44:40.102Z,44.49
2019-06-20T12:45:41.243Z,44.41
2019-06-20T12:46:40.941Z,43.04
2019-06-20T12:47:40.254Z,44.65
2019-06-20T12:48:41.165Z,45.60
2019-06-20T12:49:40.197Z,45.20
2019-06-20T12:50:40.267Z,46.90
2019-06-20T12:51:40.462Z,46.84
2019-06-20T12:52:41.282Z,45.79